Granger, Minnesota
Current Conditions -  °F | °C
As of 5:55 AM on Thursday 27 Nov 2014 (Local Time) from KFKA Reporting Station
Clear Clear  
Wind Chill: -12°   Ceiling: Unl
Heat Index:   Visibility: 10mi
Dew Point: -3°   Wind: 9mph
Humidity: 78%   Direction: 330°NNW
Pressure: 30.4"   Gusts: NA
Location:  43.57°N, 92.0698°W
Report Text: KFKA 271155Z AUTO 33008KT 10SM CLR M16/M19 A3040 RMK AO2 T11621192 11068 21162
Loading
Personal Weather Stations






























Interactive Weather Map New forecast layout! Learn more

10-Day Weather Forecast

Advertisements
Track Severe Weather on mobile